Time;durP1;ratioP1;P1;durP2;ratioP2;P2;SDS_P1;SDS_P2;PMS_P1;PMS_P2;Temp;Humidity;BMP_temperature;BMP_pressure;BME280_temperature;BME280_humidity;BME280_pressure;Samples;Min_cycle;Max_cycle;Signal;HPM_P1;HPM_P2
2021/03/15 00:00:53;;;;;;;7.87;4.60;;;;;;;3.73;80.69;99757.72;5052937;28;20340;-75
2021/03/15 00:03:19;;;;;;;7.90;3.50;;;;;;;3.76;81.22;99749.97;5065655;28;20217;-75
2021/03/15 00:05:45;;;;;;;6.93;4.47;;;;;;;3.78;81.32;99746.50;5053578;28;20205;-75
2021/03/15 00:08:12;;;;;;;6.43;4.10;;;;;;;3.91;80.92;99744.78;5053196;28;20665;-74
2021/03/15 00:10:38;;;;;;;6.13;3.20;;;;;;;3.96;81.24;99747.31;5061218;28;20206;-75
2021/03/15 00:13:04;;;;;;;9.93;3.87;;;;;;;3.97;81.00;99751.63;5056796;28;20233;-75
2021/03/15 00:15:31;;;;;;;5.47;3.50;;;;;;;4.03;80.59;99743.88;5051865;28;20211;-75
2021/03/15 00:17:57;;;;;;;8.33;3.47;;;;;;;4.10;80.14;99747.28;5057269;28;20203;-75
2021/03/15 00:20:24;;;;;;;6.17;3.37;;;;;;;4.12;80.03;99745.53;5058155;28;20546;-75
2021/03/15 00:22:50;;;;;;;7.63;3.53;;;;;;;4.14;80.46;99754.16;5057808;28;20641;-75
2021/03/15 00:25:18;;;;;;;5.20;3.70;;;;;;;4.12;80.42;99746.44;5064464;28;20199;-75
2021/03/15 00:27:45;;;;;;;5.17;3.90;;;;;;;4.09;80.84;99749.00;5060275;28;20608;-74
2021/03/15 00:30:13;;;;;;;5.70;3.57;;;;;;;4.11;80.79;99743.84;5056398;28;20203;-74
2021/03/15 00:32:40;;;;;;;5.47;3.40;;;;;;;4.21;80.86;99745.53;5064557;28;20225;-75
2021/03/15 00:35:09;;;;;;;12.13;3.83;;;;;;;4.25;80.69;99747.22;5051482;28;20198;-75
2021/03/15 00:37:36;;;;;;;7.43;3.70;;;;;;;4.27;80.53;99742.91;5054640;28;20201;-76
2021/03/15 00:40:03;;;;;;;7.80;3.60;;;;;;;4.30;80.46;99735.16;5051621;28;20203;-76
2021/03/15 00:42:29;;;;;;;7.90;3.93;;;;;;;4.06;81.15;99736.09;5063932;28;20221;-75
2021/03/15 00:44:55;;;;;;;5.40;3.70;;;;;;;4.12;81.43;99742.97;5066094;28;20265;-76
2021/03/15 00:47:21;;;;;;;9.90;4.30;;;;;;;4.10;81.94;99740.41;5058732;28;20639;-75
2021/03/15 00:49:47;;;;;;;9.27;3.87;;;;;;;4.18;81.98;99736.06;5062836;28;20615;-76
2021/03/15 00:52:14;;;;;;;4.47;4.00;;;;;;;4.15;81.64;99740.38;5059170;28;20246;-75
2021/03/15 00:54:40;;;;;;;5.17;3.93;;;;;;;4.03;82.35;99738.72;5064401;28;20263;-75
2021/03/15 00:57:06;;;;;;;5.63;3.97;;;;;;;4.04;82.62;99745.56;5056026;28;20207;-75
2021/03/15 00:59:32;;;;;;;8.87;4.17;;;;;;;4.08;82.81;99751.59;5052283;28;20209;-75
2021/03/15 01:01:58;;;;;;;6.33;4.60;;;;;;;4.06;83.67;99750.75;5063962;28;20279;-75
2021/03/15 01:04:24;;;;;;;6.03;3.57;;;;;;;4.08;82.98;99749.84;5061809;28;20197;-75
2021/03/15 01:06:50;;;;;;;4.37;3.60;;;;;;;3.96;84.38;99742.16;5054422;28;20204;-75
2021/03/15 01:09:17;;;;;;;5.33;3.57;;;;;;;3.97;84.57;99749.06;5069839;28;20258;-75
2021/03/15 01:11:42;;;;;;;3.77;3.17;;;;;;;3.88;84.22;99744.75;5061451;28;20236;-75
2021/03/15 01:14:09;;;;;;;4.23;3.40;;;;;;;3.89;84.73;99743.06;5070496;28;20207;-74
2021/03/15 01:16:36;;;;;;;6.87;3.00;;;;;;;3.90;85.48;99742.19;5067976;28;20574;-75
2021/03/15 01:19:03;;;;;;;5.03;3.23;;;;;;;4.02;84.72;99741.28;5065439;28;20547;-75
2021/03/15 01:21:29;;;;;;;4.17;3.27;;;;;;;3.84;85.09;99739.63;5055308;28;20222;-75
2021/03/15 01:23:55;;;;;;;4.23;3.63;;;;;;;3.70;86.15;99737.06;5059605;28;20200;-75
2021/03/15 01:26:22;;;;;;;3.90;3.50;;;;;;;3.72;86.29;99736.19;5057795;28;20197;-75
2021/03/15 01:28:48;;;;;;;5.93;3.30;;;;;;;3.68;85.92;99731.06;5064595;28;20551;-75
2021/03/15 01:31:14;;;;;;;4.47;3.00;;;;;;;3.76;85.82;99731.91;5063963;28;20231;-76
2021/03/15 01:33:40;;;;;;;3.87;3.03;;;;;;;3.87;86.30;99718.97;5059671;28;20243;-75
2021/03/15 01:36:06;;;;;;;5.10;3.33;;;;;;;3.98;86.11;99733.56;5059576;28;20205;-75
2021/03/15 01:38:32;;;;;;;3.70;3.13;;;;;;;4.01;85.23;99724.09;5060280;28;20599;-75
2021/03/15 01:40:58;;;;;;;3.20;3.00;;;;;;;4.02;86.01;99725.78;5061555;28;20197;-75
2021/03/15 01:43:25;;;;;;;6.87;3.30;;;;;;;3.87;84.92;99711.22;5059366;28;20572;-75
2021/03/15 01:45:51;;;;;;;4.07;3.50;;;;;;;3.84;86.13;99719.81;5063177;28;20197;-74
2021/03/15 01:48:17;;;;;;;3.93;3.23;;;;;;;3.93;85.93;99713.78;5059751;28;20208;-75
2021/03/15 01:50:46;;;;;;;4.20;3.77;;;;;;;3.81;85.12;99709.53;5056797;28;20229;-75
2021/03/15 01:53:13;;;;;;;3.50;3.20;;;;;;;3.88;85.91;99703.44;5057832;28;20224;-76
2021/03/15 01:55:39;;;;;;;3.97;3.67;;;;;;;3.96;85.49;99699.16;5057050;28;20205;-75
2021/03/15 01:58:06;;;;;;;4.13;3.83;;;;;;;3.78;84.90;99696.63;5065139;28;20746;-76
2021/03/15 02:00:33;;;;;;;4.07;3.70;;;;;;;3.82;85.65;99689.72;5054594;28;20280;-76
2021/03/15 02:03:00;;;;;;;4.63;4.23;;;;;;;3.76;84.92;99693.19;5057235;28;20217;-76
2021/03/15 02:05:27;;;;;;;4.60;3.83;;;;;;;3.74;84.69;99682.84;5061475;28;20198;-76
2021/03/15 02:07:54;;;;;;;3.40;3.20;;;;;;;3.69;84.88;99688.91;5058161;28;20212;-76
2021/03/15 02:10:20;;;;;;;4.33;3.00;;;;;;;3.67;84.70;99688.91;5058922;28;20197;-76
2021/03/15 02:13:05;;;;;;;2.60;2.40;;;;;;;3.58;84.20;99684.63;5060857;28;20233;-75
2021/03/15 02:15:38;;;;;;;2.10;1.93;;;;;;;3.69;84.41;99683.75;5058195;28;20204;-75
2021/03/15 02:18:12;;;;;;;1.77;1.67;;;;;;;3.74;84.58;99682.84;5064507;28;20202;-75
2021/03/15 02:20:57;;;;;;;2.10;2.00;;;;;;;3.55;84.61;99678.63;5062413;28;20215;-75
2021/03/15 02:23:27;;;;;;;2.20;2.00;;;;;;;3.64;84.76;99677.75;5062100;28;20205;-75
2021/03/15 02:26:17;;;;;;;2.63;2.43;;;;;;;3.76;83.75;99678.53;5058107;28;20194;-75
2021/03/15 02:29:06;;;;;;;3.03;2.83;;;;;;;3.66;84.12;99676.00;5063516;28;20236;-75
2021/03/15 02:31:53;;;;;;;3.00;2.80;;;;;;;3.69;84.60;99669.13;5065816;28;20631;-75
2021/03/15 02:34:51;;;;;;;3.40;3.20;;;;;;;3.55;84.63;99666.59;5062957;28;20193;-75
2021/03/15 02:37:21;;;;;;;3.70;3.40;;;;;;;3.68;84.72;99666.53;5057509;28;20212;-75
2021/03/15 02:39:56;;;;;;;4.33;4.03;;;;;;;3.76;84.07;99669.94;5054490;28;20197;-75
2021/03/15 02:42:25;;;;;;;4.30;4.00;;;;;;;3.81;83.69;99651.88;5064402;28;20217;-75
2021/03/15 02:44:53;;;;;;;4.93;4.60;;;;;;;3.77;83.63;99671.69;5061202;28;20659;-75
2021/03/15 02:47:22;;;;;;;5.00;4.67;;;;;;;3.76;84.40;99663.06;5061728;28;20722;-75
2021/03/15 02:49:53;;;;;;;4.87;4.47;;;;;;;3.76;83.63;99659.63;5056495;28;20616;-75
2021/03/15 02:52:21;;;;;;;4.30;4.00;;;;;;;3.73;84.26;99657.91;5065677;28;20224;-75
2021/03/15 02:54:48;;;;;;;5.80;5.17;;;;;;;3.76;83.84;99649.31;5061536;28;20199;-75
2021/03/15 02:57:17;;;;;;;4.17;3.93;;;;;;;3.75;83.46;99652.75;5057878;28;20207;-75
2021/03/15 02:59:44;;;;;;;4.90;4.50;;;;;;;3.75;83.95;99638.13;5060924;28;20200;-75
2021/03/15 03:02:10;;;;;;;4.77;4.37;;;;;;;3.71;83.93;99651.06;5065328;28;20267;-75
2021/03/15 03:04:38;;;;;;;4.00;3.70;;;;;;;3.51;82.97;99648.56;5064079;28;20596;-75
2021/03/15 03:07:05;;;;;;;4.73;4.40;;;;;;;3.51;83.69;99640.81;5063682;28;20233;-75
2021/03/15 03:09:33;;;;;;;4.63;4.33;;;;;;;3.46;83.60;99635.66;5060854;28;20668;-75
2021/03/15 03:12:00;;;;;;;5.47;4.87;;;;;;;3.51;83.23;99640.81;5060951;28;20220;-75
2021/03/15 03:14:27;;;;;;;4.10;3.90;;;;;;;3.54;83.83;99639.06;5070875;28;20209;-75
2021/03/15 03:16:55;;;;;;;4.30;4.00;;;;;;;3.58;83.73;99637.31;5057841;28;20201;-75
2021/03/15 03:19:23;;;;;;;3.73;3.43;;;;;;;3.57;83.20;99627.88;5060634;28;20615;-76
2021/03/15 03:21:51;;;;;;;4.37;4.07;;;;;;;3.58;82.87;99630.44;5057310;28;20605;-75
2021/03/15 03:24:19;;;;;;;4.10;3.80;;;;;;;3.54;83.30;99628.72;5052905;28;20570;-75
2021/03/15 03:26:45;;;;;;;4.63;4.33;;;;;;;3.51;83.06;99628.75;5060637;28;20209;-75
2021/03/15 03:29:13;;;;;;;4.10;3.90;;;;;;;3.54;83.00;99626.16;5067133;28;20290;-75
2021/03/15 03:31:42;;;;;;;4.70;4.40;;;;;;;3.49;83.67;99624.44;5055006;28;20225;-75
2021/03/15 03:34:09;;;;;;;5.10;4.80;;;;;;;3.38;84.05;99632.22;5052988;28;20190;-75
2021/03/15 03:36:35;;;;;;;4.40;4.10;;;;;;;3.41;83.59;99623.63;5053508;28;20236;-75
2021/03/15 03:39:02;;;;;;;5.10;4.80;;;;;;;3.34;83.30;99626.22;5060056;28;20202;-75
2021/03/15 03:41:28;;;;;;;4.70;4.40;;;;;;;3.40;83.32;99622.75;5061511;28;20232;-75
2021/03/15 03:43:54;;;;;;;4.87;4.57;;;;;;;3.34;83.20;99621.06;5052442;28;20570;-75
2021/03/15 03:46:20;;;;;;;4.70;4.40;;;;;;;3.38;82.86;99617.59;5063481;28;20206;-75
2021/03/15 03:48:46;;;;;;;4.83;4.53;;;;;;;3.42;83.01;99617.59;5053918;28;20292;-76
2021/03/15 03:51:13;;;;;;;5.40;5.00;;;;;;;3.42;82.95;99623.63;5053002;28;20224;-75
2021/03/15 03:53:45;;;;;;;5.03;4.73;;;;;;;3.40;83.17;99630.50;5060249;28;20208;-75
2021/03/15 03:56:13;;;;;;;5.43;5.03;;;;;;;3.38;83.35;99627.06;5055386;28;20195;-75
2021/03/15 03:58:43;;;;;;;5.50;5.10;;;;;;;3.34;83.67;99631.38;5062458;28;20688;-75
2021/03/15 04:01:11;;;;;;;4.80;4.50;;;;;;;3.33;83.31;99624.50;5062248;28;20217;-75
2021/03/15 04:03:38;;;;;;;4.80;4.47;;;;;;;3.35;82.67;99625.38;5053785;28;20204;-75
2021/03/15 04:06:08;;;;;;;4.80;4.50;;;;;;;3.26;83.88;99629.69;5053145;28;20236;-76
2021/03/15 04:08:41;;;;;;;5.47;5.07;;;;;;;3.23;83.58;99633.16;5066382;28;20202;-76
2021/03/15 04:11:09;;;;;;;5.43;5.03;;;;;;;3.24;83.86;99631.41;5060784;28;20273;-76
2021/03/15 04:13:37;;;;;;;5.27;4.93;;;;;;;3.20;83.46;99629.72;5053448;28;20208;-76
2021/03/15 04:16:07;;;;;;;5.50;5.10;;;;;;;3.18;83.73;99627.97;5060631;28;20668;-75
2021/03/15 04:18:36;;;;;;;5.07;4.67;;;;;;;3.11;83.59;99631.44;5061512;28;20198;-75
2021/03/15 04:21:05;;;;;;;5.30;4.90;;;;;;;3.12;82.91;99622.84;5060079;28;20758;-75
2021/03/15 04:23:36;;;;;;;5.47;5.07;;;;;;;3.00;83.66;99625.44;5054250;28;20207;-76
2021/03/15 04:26:03;;;;;;;5.03;4.73;;;;;;;3.06;83.36;99620.28;5068008;28;20201;-75
2021/03/15 04:28:31;;;;;;;5.67;5.27;;;;;;;3.03;83.23;99625.41;5058242;28;20294;-75
2021/03/15 04:30:58;;;;;;;5.10;4.70;;;;;;;2.99;83.53;99626.28;5061713;28;20207;-76
2021/03/15 04:33:26;;;;;;;5.10;4.80;;;;;;;2.96;84.55;99621.16;5054881;28;20229;-73
2021/03/15 04:35:53;;;;;;;4.73;4.33;;;;;;;3.01;84.34;99628.88;5064367;28;20713;-76
2021/03/15 04:38:20;;;;;;;4.73;4.33;;;;;;;3.01;84.33;99626.28;5064648;28;20200;-75
2021/03/15 04:40:48;;;;;;;4.70;4.40;;;;;;;3.04;84.60;99627.16;5063944;28;20343;-75
2021/03/15 04:43:16;;;;;;;4.67;4.37;;;;;;;3.04;83.96;99631.44;5058316;28;20205;-75
2021/03/15 04:45:43;;;;;;;5.13;4.83;;;;;;;2.83;84.10;99624.59;5061956;28;20224;-76
2021/03/15 04:48:15;;;;;;;4.87;4.57;;;;;;;2.93;85.09;99631.44;5052656;28;20201;-74
2021/03/15 04:50:43;;;;;;;4.90;4.50;;;;;;;3.03;84.38;99628.00;5054908;28;20232;-75
2021/03/15 04:53:10;;;;;;;5.40;5.00;;;;;;;3.07;84.99;99629.75;5063284;28;20365;-75
2021/03/15 04:55:36;;;;;;;4.63;4.27;;;;;;;3.08;84.42;99626.28;5066459;28;20201;-75
2021/03/15 04:58:05;;;;;;;5.33;4.93;;;;;;;3.09;84.68;99625.44;5059186;28;20254;-75
2021/03/15 05:00:32;;;;;;;5.20;4.80;;;;;;;3.13;84.74;99631.41;5060351;28;20212;-76
2021/03/15 05:02:59;;;;;;;4.93;4.63;;;;;;;3.13;84.04;99626.25;5063968;28;20214;-75
2021/03/15 05:05:27;;;;;;;5.60;5.20;;;;;;;3.17;84.74;99623.69;5057805;28;20246;-75
2021/03/15 05:07:57;;;;;;;5.80;5.40;;;;;;;3.14;85.22;99622.84;5060191;28;20216;-75
2021/03/15 05:10:25;;;;;;;4.60;4.30;;;;;;;3.23;85.15;99622.84;5063116;28;20601;-75
2021/03/15 05:12:51;;;;;;;5.90;5.50;;;;;;;3.25;84.58;99623.69;5073505;22;20287;-75
2021/03/15 05:15:17;;;;;;;5.57;5.17;;;;;;;3.04;85.44;99623.72;5059449;28;20211;-75
2021/03/15 05:17:44;;;;;;;5.53;5.13;;;;;;;3.11;84.73;99628.00;5059633;28;20240;-75
2021/03/15 05:20:14;;;;;;;6.37;5.80;;;;;;;2.81;85.58;99626.31;5064794;28;20663;-75
2021/03/15 05:22:42;;;;;;;5.47;5.07;;;;;;;2.87;86.14;99626.31;5052683;28;20698;-75
2021/03/15 05:25:10;;;;;;;6.53;6.03;;;;;;;2.78;86.08;99620.31;5062548;28;20212;-74
2021/03/15 05:27:37;;;;;;;6.50;6.00;;;;;;;2.87;86.79;99619.44;5051123;28;20612;-75
2021/03/15 05:30:07;;;;;;;6.80;6.30;;;;;;;3.00;86.88;99622.00;5061812;28;20197;-75
2021/03/15 05:32:36;;;;;;;6.70;6.20;;;;;;;3.04;86.28;99619.41;5051741;28;20229;-75
2021/03/15 05:35:05;;;;;;;7.17;6.57;;;;;;;2.96;86.16;99616.00;5047107;28;20202;-74
2021/03/15 05:37:31;;;;;;;6.83;6.33;;;;;;;3.07;86.27;99626.28;5061162;28;20205;-75
2021/03/15 05:39:58;;;;;;;5.90;5.40;;;;;;;3.09;86.49;99624.56;5060208;28;20572;-75
2021/03/15 05:42:34;;;;;;;5.87;5.43;;;;;;;3.13;86.45;99623.69;5055808;28;20226;-75
2021/03/15 05:45:13;;;;;;;6.40;5.90;;;;;;;3.21;85.13;99626.25;5046297;28;20205;-75
2021/03/15 05:48:22;;;;;;;5.83;5.33;;;;;;;3.17;85.29;99626.28;5054436;28;20200;-75
2021/03/15 05:51:04;;;;;;;6.93;6.33;;;;;;;3.25;86.09;99628.84;5062006;28;20197;-75
2021/03/15 05:53:53;;;;;;;5.47;5.07;;;;;;;3.33;85.52;99631.38;5058538;28;20324;-75
2021/03/15 05:56:30;;;;;;;6.47;5.90;;;;;;;3.25;85.27;99627.97;5064108;28;20197;-75
2021/03/15 05:59:16;;;;;;;6.40;5.90;;;;;;;3.13;86.07;99631.41;5058213;28;20327;-75
2021/03/15 06:01:57;;;;;;;6.87;6.27;;;;;;;2.88;87.03;99631.47;5043762;28;20569;-75
2021/03/15 06:05:11;;;;;;;6.67;6.07;;;;;;;2.73;87.68;99627.16;5055341;28;20677;-74
2021/03/15 06:07:40;;;;;;;6.53;5.93;;;;;;;2.83;87.35;99622.88;4970087;28;20890;-75
2021/03/15 06:10:08;;;;;;;7.33;6.83;;;;;;;2.62;88.05;99623.75;5042870;28;20208;-75
2021/03/15 06:12:38;;;;;;;7.30;6.60;;;;;;;2.57;88.83;99623.72;5056855;28;20229;-74
2021/03/15 06:15:06;;;;;;;8.33;7.63;;;;;;;2.75;88.71;99622.88;5053693;28;20208;-74
2021/03/15 06:17:32;;;;;;;7.40;6.80;;;;;;;2.84;89.17;99627.19;5061474;28;20227;-75
2021/03/15 06:19:59;;;;;;;6.93;6.33;;;;;;;2.89;88.39;99622.00;5052280;28;20202;-75
2021/03/15 06:22:25;;;;;;;7.93;7.07;;;;;;;2.95;88.70;99617.72;5051092;28;20220;-75
2021/03/15 06:24:51;;;;;;;7.57;6.97;;;;;;;2.82;88.84;99618.59;5054081;28;20211;-75
2021/03/15 06:27:17;;;;;;;7.47;6.90;;;;;;;2.93;89.11;99618.56;5054346;28;20208;-75
2021/03/15 06:29:43;;;;;;;7.93;7.23;;;;;;;2.76;88.82;99618.59;5054842;28;20258;-75
2021/03/15 06:32:11;;;;;;;7.93;7.33;;;;;;;2.92;88.84;99612.56;5052603;28;20657;-76
2021/03/15 06:34:39;;;;;;;8.97;8.23;;;;;;;2.96;89.05;99613.41;5056583;28;20204;-76
2021/03/15 06:37:05;;;;;;;8.20;7.50;;;;;;;3.04;88.37;99608.25;5051390;28;20203;-76
2021/03/15 06:39:37;;;;;;;8.27;7.57;;;;;;;3.20;88.64;99614.22;5054332;28;20229;-76
2021/03/15 06:42:05;;;;;;;11.17;10.27;;;;;;;3.15;88.56;99621.97;5051096;28;20218;-78
2021/03/15 06:44:32;;;;;;;16.60;15.20;;;;;;;3.11;88.64;99628.88;5054908;28;20209;-76
2021/03/15 06:46:58;;;;;;;12.27;11.17;;;;;;;2.92;89.68;99622.88;5054424;28;20201;-76
2021/03/15 06:49:24;;;;;;;10.37;9.47;;;;;;;2.85;89.21;99628.88;5053799;28;20209;-77
2021/03/15 06:52:00;;;;;;;10.73;9.80;;;;;;;2.98;89.86;99633.16;5052833;28;20607;-74
2021/03/15 06:54:28;;;;;;;11.27;10.37;;;;;;;2.81;89.92;99641.78;5050582;28;20208;-76
2021/03/15 06:57:12;;;;;;;11.60;10.60;;;;;;;2.83;90.15;99642.63;5049332;28;20202;-76
2021/03/15 06:59:49;;;;;;;13.23;12.03;;;;;;;2.96;90.59;99644.34;5053117;28;20207;-74
2021/03/15 07:02:22;;;;;;;11.13;10.20;;;;;;;2.94;90.35;99654.66;5050115;28;20236;-75
2021/03/15 07:04:50;;;;;;;9.97;9.00;;;;;;;2.97;90.74;99653.78;5051890;28;20194;-74
2021/03/15 07:07:26;;;;;;;8.53;7.83;;;;;;;3.14;89.81;99661.50;5054257;28;20261;-75
2021/03/15 07:09:54;;;;;;;8.43;7.73;;;;;;;2.99;89.80;99659.78;5053352;28;20205;-74
2021/03/15 07:12:21;;;;;;;8.33;7.63;;;;;;;2.88;90.30;99675.28;5052257;28;20270;-75
2021/03/15 07:14:48;;;;;;;10.03;9.13;;;;;;;2.89;90.34;99668.41;5050998;28;20202;-75
2021/03/15 07:17:23;;;;;;;9.67;8.43;;;;;;;2.88;91.01;99670.13;5053402;28;20259;-76
2021/03/15 07:19:50;;;;;;;8.60;7.80;;;;;;;2.95;90.62;99681.28;5052370;28;20201;-76
2021/03/15 07:22:21;;;;;;;8.67;7.97;;;;;;;2.91;91.21;99675.25;5051767;28;20228;-77
2021/03/15 07:25:01;;;;;;;9.37;8.57;;;;;;;2.89;91.53;99678.72;5050669;28;20224;-76
2021/03/15 07:27:31;;;;;;;8.93;8.13;;;;;;;3.04;91.33;99672.72;5050035;28;20225;-75
2021/03/15 07:29:57;;;;;;;9.03;8.23;;;;;;;3.01;91.10;99675.28;5052088;28;20198;-74
2021/03/15 07:32:39;;;;;;;8.43;7.73;;;;;;;3.12;90.89;99681.28;5051544;28;20225;-76
2021/03/15 07:35:24;;;;;;;8.87;8.07;;;;;;;3.13;90.78;99676.13;5053407;28;20207;-76
2021/03/15 07:37:50;;;;;;;7.77;7.17;;;;;;;3.14;89.83;99672.69;5052903;28;20206;-77
2021/03/15 07:40:38;;;;;;;7.70;6.97;;;;;;;3.18;90.03;99687.28;5052262;28;20213;-76
2021/03/15 07:43:05;;;;;;;7.97;7.27;;;;;;;3.23;89.54;99681.25;5055109;28;20237;-76
2021/03/15 07:45:33;;;;;;;7.70;7.00;;;;;;;3.34;89.71;99682.13;5056273;28;20216;-75
2021/03/15 07:48:07;;;;;;;8.60;7.70;;;;;;;3.34;89.23;99688.13;5052158;28;20297;-76
2021/03/15 07:50:34;;;;;;;8.90;8.03;;;;;;;3.38;89.24;99691.56;5053460;28;20202;-75
2021/03/15 07:53:00;;;;;;;6.97;6.30;;;;;;;3.39;89.31;99680.41;5054361;28;20261;-76
2021/03/15 07:55:36;;;;;;;8.17;7.07;;;;;;;3.47;88.80;99698.41;5051797;28;20657;-75
2021/03/15 07:58:07;;;;;;;6.97;6.43;;;;;;;3.60;89.45;99701.84;5052795;28;20290;-76
2021/03/15 08:00:33;;;;;;;8.70;7.90;;;;;;;3.61;88.12;99690.63;5053089;28;20202;-74
2021/03/15 08:02:59;;;;;;;6.80;6.20;;;;;;;3.55;88.03;99679.50;5053289;28;20704;-74
2021/03/15 08:05:25;;;;;;;6.80;6.30;;;;;;;3.71;88.13;99682.03;5051608;28;20225;-74
2021/03/15 08:07:51;;;;;;;6.43;5.93;;;;;;;3.91;88.55;99684.53;5052940;28;20657;-74
2021/03/15 08:10:17;;;;;;;6.27;5.77;;;;;;;3.81;86.98;99685.44;5052787;28;20201;-74
2021/03/15 08:12:45;;;;;;;5.20;4.70;;;;;;;3.82;87.11;99684.56;5051866;28;20225;-74
2021/03/15 08:15:12;;;;;;;6.00;5.50;;;;;;;3.88;87.20;99675.06;5052412;28;20209;-74
2021/03/15 08:17:43;;;;;;;5.20;4.70;;;;;;;4.00;86.58;99679.31;5051137;28;20592;-75
2021/03/15 08:20:10;;;;;;;5.50;5.00;;;;;;;4.02;86.53;99685.31;5054237;28;20197;-75
2021/03/15 08:22:38;;;;;;;5.93;3.83;;;;;;;4.04;85.17;99681.00;5054720;28;20582;-74
2021/03/15 08:25:08;;;;;;;4.20;3.17;;;;;;;4.16;85.17;99678.41;5051026;28;20245;-75
2021/03/15 08:27:39;;;;;;;3.73;2.77;;;;;;;4.28;84.39;99676.59;5051120;28;20229;-74
2021/03/15 08:30:09;;;;;;;3.17;2.70;;;;;;;4.17;83.52;99687.00;5048732;28;20280;-74
2021/03/15 08:32:37;;;;;;;4.10;2.70;;;;;;;4.10;83.74;99681.00;5051706;28;20234;-76
2021/03/15 08:35:06;;;;;;;5.40;2.93;;;;;;;4.25;84.50;99676.63;5051641;28;20210;-74
2021/03/15 08:37:55;;;;;;;3.37;2.33;;;;;;;4.33;83.47;99686.03;5050424;28;20212;-75
2021/03/15 08:40:50;;;;;;;4.00;2.70;;;;;;;4.43;84.34;99683.41;5050561;28;20201;-75
2021/03/15 08:43:25;;;;;;;3.33;2.23;;;;;;;4.45;83.43;99686.84;5050833;28;20228;-76
2021/03/15 08:45:53;;;;;;;6.60;3.27;;;;;;;4.42;83.16;99673.91;5053678;28;20298;-75
2021/03/15 08:48:20;;;;;;;3.63;2.10;;;;;;;4.45;82.63;99682.53;5051130;28;20227;-74
2021/03/15 08:50:47;;;;;;;6.83;2.60;;;;;;;4.37;82.70;99673.97;5050258;28;20201;-74
2021/03/15 08:53:44;;;;;;;4.93;2.60;;;;;;;4.53;83.94;99674.72;5051557;28;20224;-75
2021/03/15 08:56:12;;;;;;;4.80;2.47;;;;;;;4.59;83.28;99666.94;5049642;28;20631;-75
2021/03/15 08:58:40;;;;;;;8.07;2.10;;;;;;;4.64;83.67;99670.34;5050719;28;20210;-74
2021/03/15 09:01:08;;;;;;;3.07;1.90;;;;;;;4.74;82.04;99671.13;5048987;28;20642;-74
2021/03/15 09:03:46;;;;;;;2.87;2.67;;;;;;;4.78;81.85;99668.50;5052331;28;20218;-75
2021/03/15 09:06:12;;;;;;;4.83;3.23;;;;;;;4.72;81.58;99668.56;5051449;28;20200;-74
2021/03/15 09:08:56;;;;;;;5.77;3.33;;;;;;;4.78;83.45;99673.69;5053027;28;20205;-74
2021/03/15 09:11:49;;;;;;;5.63;3.57;;;;;;;4.86;82.01;99672.78;5051904;28;20198;-74
2021/03/15 09:14:39;;;;;;;5.47;3.63;;;;;;;4.91;82.19;99669.25;5050031;28;20290;-74
2021/03/15 09:17:31;;;;;;;5.80;3.73;;;;;;;4.84;81.12;99672.78;5023755;28;20207;-76
2021/03/15 09:19:57;;;;;;;6.13;4.03;;;;;;;4.92;82.07;99677.88;5050391;28;20237;-76
2021/03/15 09:22:24;;;;;;;5.63;3.43;;;;;;;4.87;80.65;99679.63;5053782;28;20783;-77
2021/03/15 09:24:52;;;;;;;5.27;3.97;;;;;;;4.86;81.99;99668.44;5055262;28;20206;-77
2021/03/15 09:27:44;;;;;;;4.83;4.37;;;;;;;4.91;82.77;99663.22;5050997;28;20203;-76
2021/03/15 09:30:14;;;;;;;7.13;4.07;;;;;;;4.93;81.83;99667.50;5050466;28;20676;-76
2021/03/15 09:32:44;;;;;;;7.47;3.67;;;;;;;4.89;81.41;99668.41;5050533;28;20949;-76
2021/03/15 09:35:19;;;;;;;4.70;3.50;;;;;;;4.98;80.10;99663.16;5048542;28;20212;-75
2021/03/15 09:37:51;;;;;;;6.27;4.53;;;;;;;5.08;81.14;99661.34;5047265;28;20206;-75
2021/03/15 09:40:20;;;;;;;6.37;4.07;;;;;;;5.06;80.17;99660.50;5050130;28;20200;-75
2021/03/15 09:42:47;;;;;;;6.00;3.50;;;;;;;5.01;79.36;99656.25;5047318;28;20232;-74
2021/03/15 09:45:23;;;;;;;9.40;3.30;;;;;;;4.96;81.12;99683.00;5049859;28;20225;-74
2021/03/15 09:47:49;;;;;;;5.97;3.90;;;;;;;4.95;81.23;99658.00;5053844;28;20535;-76
2021/03/15 09:50:20;;;;;;;5.93;3.67;;;;;;;4.92;81.13;99658.06;5056629;28;20293;-76
2021/03/15 09:52:46;;;;;;;4.07;3.53;;;;;;;4.88;80.46;99661.53;5053737;28;20263;-74
2021/03/15 09:55:12;;;;;;;5.93;3.63;;;;;;;4.96;81.72;99664.06;5053378;28;20198;-75
2021/03/15 09:57:38;;;;;;;4.07;3.00;;;;;;;5.05;80.45;99655.34;5055489;28;20205;-76
2021/03/15 10:00:11;;;;;;;7.10;3.53;;;;;;;5.12;79.63;99654.44;5054362;28;20193;-74
2021/03/15 10:02:37;;;;;;;4.87;3.63;;;;;;;5.20;80.55;99656.94;5054230;28;20226;-77
2021/03/15 10:05:05;;;;;;;5.07;3.50;;;;;;;5.28;81.33;99653.41;5053896;28;20579;-74
2021/03/15 10:07:31;;;;;;;5.53;3.57;;;;;;;5.24;81.34;99663.81;5054653;28;20215;-77
2021/03/15 10:10:07;;;;;;;7.07;3.33;;;;;;;5.24;81.68;99664.66;5053453;28;20203;-75
2021/03/15 10:12:33;;;;;;;5.97;3.83;;;;;;;5.23;81.20;99659.50;5052990;28;20276;-74
2021/03/15 10:14:59;;;;;;;5.77;4.20;;;;;;;5.25;81.73;99662.91;5053236;28;20203;-75
2021/03/15 10:17:26;;;;;;;5.27;4.20;;;;;;;5.17;82.34;99666.47;5051455;28;20202;-74
2021/03/15 10:19:53;;;;;;;5.27;4.77;;;;;;;5.23;83.44;99665.50;5053094;28;20555;-73
2021/03/15 10:22:21;;;;;;;8.70;4.97;;;;;;;5.27;83.50;99664.63;5052868;28;20225;-74
2021/03/15 10:24:49;;;;;;;5.87;2.90;;;;;;;5.30;82.83;99671.50;5051520;28;20229;-74
2021/03/15 10:27:18;;;;;;;5.40;3.30;;;;;;;5.27;83.02;99667.22;5052746;28;20229;-73
2021/03/15 10:29:53;;;;;;;2.90;2.47;;;;;;;5.14;82.22;99666.47;5053201;28;20203;-75
2021/03/15 10:32:25;;;;;;;4.00;2.67;;;;;;;5.26;82.75;99672.41;5057791;28;20256;-75
2021/03/15 10:34:58;;;;;;;6.43;3.30;;;;;;;5.34;83.30;99676.63;5054335;28;20717;-75
2021/03/15 10:37:26;;;;;;;5.57;2.97;;;;;;;5.29;82.80;99668.06;5059171;28;20194;-76
2021/03/15 10:39:54;;;;;;;4.50;2.67;;;;;;;5.25;82.43;99649.97;5054145;28;20347;-73
2021/03/15 10:42:21;;;;;;;5.07;2.83;;;;;;;5.21;82.78;99656.06;5064553;28;20737;-74
2021/03/15 10:44:48;;;;;;;3.17;2.67;;;;;;;5.28;82.82;99649.97;5054859;28;20254;-74
2021/03/15 10:47:25;;;;;;;3.43;2.17;;;;;;;5.37;81.89;99662.78;5057301;28;20571;-75
2021/03/15 10:49:51;;;;;;;3.17;2.27;;;;;;;5.38;82.37;99646.41;5057994;28;20201;-76
2021/03/15 10:52:27;;;;;;;4.20;2.40;;;;;;;5.51;82.99;99645.41;5053092;28;20290;-75
2021/03/15 10:54:53;;;;;;;3.53;2.80;;;;;;;5.48;82.45;99653.19;5051476;28;20196;-76
2021/03/15 10:57:21;;;;;;;5.37;2.30;;;;;;;5.43;83.61;99657.56;5056279;28;20259;-75
2021/03/15 10:59:48;;;;;;;4.67;2.20;;;;;;;5.40;82.73;99647.25;5055140;28;20707;-77
2021/03/15 11:02:20;;;;;;;6.50;2.50;;;;;;;5.36;82.54;99654.19;5056148;28;20223;-73
2021/03/15 11:04:55;;;;;;;5.03;2.50;;;;;;;5.60;82.88;99648.75;5052459;28;20198;-77
2021/03/15 11:07:23;;;;;;;4.50;2.63;;;;;;;5.76;81.36;99651.13;5051778;28;20208;-73
2021/03/15 11:09:59;;;;;;;5.63;2.70;;;;;;;5.89;81.26;99649.25;5054279;28;20196;-77
2021/03/15 11:12:42;;;;;;;4.97;2.73;;;;;;;6.11;79.22;99646.44;5053730;28;20630;-75
2021/03/15 11:15:14;;;;;;;4.37;2.17;;;;;;;6.44;79.41;99649.41;5054840;28;20671;-74
2021/03/15 11:17:42;;;;;;;9.47;2.50;;;;;;;6.30;76.72;99642.72;5053656;28;20207;-74
2021/03/15 11:20:10;;;;;;;4.50;2.10;;;;;;;6.32;76.54;99635.78;5054446;28;20665;-75
2021/03/15 11:22:47;;;;;;;3.80;1.80;;;;;;;6.30;76.88;99641.84;5051858;28;20221;-75
2021/03/15 11:25:15;;;;;;;4.33;1.70;;;;;;;6.26;77.03;99638.41;5053565;28;20206;-75
2021/03/15 11:27:46;;;;;;;4.93;2.30;;;;;;;6.29;77.25;99643.56;5054600;28;20208;-75
2021/03/15 11:30:26;;;;;;;6.90;2.20;;;;;;;6.29;78.29;99648.75;5053468;28;20198;-76
2021/03/15 11:33:00;;;;;;;4.93;1.67;;;;;;;6.05;77.41;99649.97;5055248;28;20234;-76
2021/03/15 11:35:26;;;;;;;5.27;2.00;;;;;;;6.05;80.37;99655.13;5052346;28;20215;-75
2021/03/15 11:37:52;;;;;;;4.90;2.00;;;;;;;5.82;78.62;99672.66;5053189;28;20215;-75
2021/03/15 11:40:37;;;;;;;3.60;1.50;;;;;;;5.71;78.78;99665.88;5054491;28;20199;-76
2021/03/15 11:43:05;;;;;;;3.63;1.40;;;;;;;5.77;79.24;99662.38;5051162;28;20307;-76
2021/03/15 11:45:31;;;;;;;2.53;1.40;;;;;;;5.91;79.33;99651.84;5054481;28;20201;-76
2021/03/15 11:47:57;;;;;;;3.90;1.40;;;;;;;6.11;79.24;99656.78;5052999;28;20207;-76
2021/03/15 11:50:25;;;;;;;8.13;1.43;;;;;;;6.18;77.91;99642.00;5052029;28;20201;-76
2021/03/15 11:52:52;;;;;;;3.50;1.97;;;;;;;6.15;75.66;99650.69;5052699;28;20236;-76
2021/03/15 11:55:19;;;;;;;3.47;1.17;;;;;;;6.08;77.98;99682.72;5051489;28;20314;-76